Aérodrome :
LOGIN :

S'inscrire | Disclaimer

   EN    FR    IT 

 










Légende :    VFR   VFR Marginal   IFR   IFR Intensif   IFR Très Intensif
Visi : 
Plafond : 
>= 8 km
>= 3000ft
5 à 8 km
1000 à 3000 ft
1500m à 5 km
500 à 1000 ft
800 à 1500m
200 à 500 ft
< 800m
< 200 ft
Symboles :   Orages  Brouillard  Fortes neiges  Fortes précipitations  Vent > 20 kt
SIGMETs :   Divers  Orages  Givrage  Turbulence  Onde Orograph.  Cendres Volcan.






- Altitude de l'aérodrome : 313 ft
- Code IATA : LEH


LFOH - Le Havre Octeville

DERNIER METAR :
  • 151100Z AUTO 22015KT CAVOK 09/03 Q1002 BECMG 22018G28KT

METARs EXPIRÉS :
  • 151030Z AUTO 22014KT 180V250 CAVOK 08/03 Q1002 BECMG 22018G28KT
  • 151000Z AUTO 22012KT CAVOK 08/04 Q1002 BECMG 22018G28KT
  • 150930Z AUTO 22013KT CAVOK 08/03 Q1002 BECMG 22018G28KT
  • 150900Z AUTO 23014KT CAVOK 08/03 Q1001 BECMG 22018G28KT
  • 150830Z AUTO 23015KT CAVOK 08/03 Q1001 BECMG 22018G28KT
  • 150800Z AUTO 23014KT 9999 SCT048 07/03 Q1000 BECMG 22018G28KT

TAF TAF LFOH
Valide du 15 à 06h jusqu'au 16 à 06h UTC


150500Z 1506/1606 22018G28KT 9999 SCT030
TEMPO 1601/1606 SHRA BKN013 BKN030TCU
ATIS : +33 2 35 54 64 93



MET'MAP, la Météo Aéronautique d'un coup d'oeil ! - Copyright ORBIFLY Décembre 2007 - Disclaimer

ORBIFLY MET'MAP TEAM :

Programmation & Développement : Alexandra Zaïnal
Sur une idée originale de : Baudouin d'Aumeries
Assistance à la programmation : Marc-Olivier Méhu
Soutien technique & logistique : Manuel Goepfert

Contact : metmap@orbifly.com




SOURCES & CREDITS :

   NOAA